createdAt,value
2017-09-12T00:00:49.970Z,23.81
2017-09-12T00:01:50.006Z,23.90
2017-09-12T00:02:50.040Z,23.90
2017-09-12T00:03:50.326Z,23.86
2017-09-12T00:04:50.110Z,23.89
2017-09-12T00:05:50.148Z,23.86
2017-09-12T00:06:50.476Z,23.89
2017-09-12T00:07:50.262Z,23.84
2017-09-12T00:08:50.299Z,23.84
2017-09-12T00:09:50.327Z,23.82
2017-09-12T00:10:50.312Z,23.82
2017-09-12T00:11:50.700Z,23.87
2017-09-12T00:12:50.685Z,23.89
2017-09-12T00:13:50.416Z,23.82
2017-09-12T00:14:50.451Z,23.89
2017-09-12T00:15:50.487Z,23.77
2017-09-12T00:16:50.521Z,23.77
2017-09-12T00:17:50.558Z,23.77
2017-09-12T00:18:50.887Z,23.69
2017-09-12T00:19:50.624Z,23.69
2017-09-12T00:20:50.662Z,23.62
2017-09-12T00:21:50.689Z,23.63
2017-09-12T00:22:50.807Z,23.60
2017-09-12T00:23:50.757Z,23.56
2017-09-12T00:24:51.105Z,23.54
2017-09-12T00:25:50.833Z,23.57
2017-09-12T00:26:51.060Z,23.54
2017-09-12T00:27:50.893Z,23.44
2017-09-12T00:28:50.929Z,23.42
2017-09-12T00:29:50.964Z,23.44
2017-09-12T00:30:51.299Z,23.42
2017-09-12T00:31:51.037Z,23.38
2017-09-12T00:32:51.134Z,23.35
2017-09-12T00:33:51.104Z,23.34
2017-09-12T00:34:51.131Z,23.38
2017-09-12T00:35:51.170Z,23.25
2017-09-12T00:36:51.501Z,23.31
2017-09-12T00:37:51.333Z,23.31
2017-09-12T00:38:51.274Z,23.31
2017-09-12T00:39:51.304Z,23.22
2017-09-12T00:40:51.339Z,23.26
2017-09-12T00:41:51.370Z,23.18
2017-09-12T00:42:51.706Z,23.15
2017-09-12T00:43:51.599Z,23.15
2017-09-12T00:44:51.484Z,23.18
2017-09-12T00:45:51.503Z,23.15
2017-09-12T00:46:51.550Z,23.15
2017-09-12T00:47:51.675Z,23.12
2017-09-12T00:48:51.912Z,23.09
2017-09-12T00:49:51.640Z,23.06
2017-09-12T00:50:51.681Z,23.06
2017-09-12T00:51:51.710Z,23.07
2017-09-12T00:52:51.900Z,23.15
2017-09-12T00:53:51.783Z,23.09
2017-09-12T00:54:52.116Z,23.12
2017-09-12T00:55:51.844Z,23.09
2017-09-12T00:56:51.877Z,23.06
2017-09-12T00:57:52.063Z,23.11
2017-09-12T00:58:51.948Z,23.03
2017-09-12T00:59:51.979Z,23.00
2017-09-12T01:00:52.313Z,23.00
2017-09-12T01:01:52.044Z,23.06
2017-09-12T01:02:52.093Z,23.03
2017-09-12T01:03:52.413Z,23.00
2017-09-12T01:04:52.151Z,23.00
2017-09-12T01:05:52.193Z,23.00
2017-09-12T01:06:52.513Z,23.01
2017-09-12T01:07:52.254Z,23.01
2017-09-12T01:08:52.283Z,22.93
2017-09-12T01:09:52.324Z,23.03
2017-09-12T01:10:52.346Z,23.06
2017-09-12T01:11:52.391Z,23.01
2017-09-12T01:12:52.716Z,23.01
2017-09-12T01:13:52.498Z,23.00
2017-09-12T01:14:52.507Z,22.96
2017-09-12T01:15:52.518Z,23.03
2017-09-12T01:16:52.561Z,23.01
2017-09-12T01:17:52.635Z,22.94
2017-09-12T01:18:52.920Z,22.96
2017-09-12T01:19:52.654Z,22.97
2017-09-12T01:20:52.686Z,22.93
2017-09-12T01:21:52.718Z,22.91
2017-09-12T01:22:52.762Z,22.88
2017-09-12T01:23:52.784Z,22.99
2017-09-12T01:24:53.122Z,22.81
2017-09-12T01:25:52.851Z,22.88
2017-09-12T01:26:52.884Z,22.97
2017-09-12T01:27:52.919Z,22.89
2017-09-12T01:28:52.960Z,22.94
2017-09-12T01:29:52.986Z,22.97
2017-09-12T01:30:53.322Z,22.85
2017-09-12T01:31:53.054Z,22.84
2017-09-12T01:32:53.094Z,22.88
2017-09-12T01:33:53.123Z,22.93
2017-09-12T01:34:53.206Z,22.88
2017-09-12T01:35:53.187Z,22.91
2017-09-12T01:36:53.523Z,22.88
2017-09-12T01:37:53.252Z,22.84
2017-09-12T01:38:53.307Z,22.86
2017-09-12T01:39:53.474Z,22.81
2017-09-12T01:40:53.357Z,22.85
2017-09-12T01:41:53.385Z,22.84
2017-09-12T01:42:53.722Z,22.79
2017-09-12T01:43:53.491Z,22.86
2017-09-12T01:44:53.512Z,22.81
2017-09-12T01:45:53.577Z,22.82
2017-09-12T01:46:53.556Z,22.69
2017-09-12T01:47:53.588Z,22.81
2017-09-12T01:48:53.926Z,22.76
2017-09-12T01:49:53.656Z,22.72
2017-09-12T01:50:53.689Z,22.67
2017-09-12T01:51:53.769Z,22.75
2017-09-12T01:52:53.757Z,22.74
2017-09-12T01:53:53.787Z,22.76
2017-09-12T01:54:53.821Z,22.69
2017-09-12T01:55:54.161Z,22.61
2017-09-12T01:56:53.990Z,22.70
2017-09-12T01:57:53.927Z,22.70
2017-09-12T01:58:53.959Z,22.70
2017-09-12T01:59:54.040Z,22.64
2017-09-12T02:00:54.029Z,22.81
2017-09-12T02:01:54.056Z,22.60
2017-09-12T02:02:54.589Z,22.61
2017-09-12T02:03:54.123Z,22.72
2017-09-12T02:04:54.157Z,22.63
2017-09-12T02:05:54.189Z,22.61
2017-09-12T02:06:54.241Z,22.76
2017-09-12T02:07:54.256Z,22.72
2017-09-12T02:08:54.598Z,22.72
2017-09-12T02:09:54.325Z,22.64
2017-09-12T02:10:54.357Z,22.70
2017-09-12T02:11:54.395Z,22.66
2017-09-12T02:12:54.623Z,22.67
2017-09-12T02:13:54.457Z,22.61
2017-09-12T02:14:54.789Z,22.63
2017-09-12T02:15:54.525Z,22.56
2017-09-12T02:16:54.560Z,22.64
2017-09-12T02:17:54.591Z,22.63
2017-09-12T02:18:54.674Z,22.63
2017-09-12T02:19:54.656Z,22.63
2017-09-12T02:20:54.995Z,22.57
2017-09-12T02:21:54.722Z,22.59
2017-09-12T02:22:54.767Z,22.46
2017-09-12T02:23:54.797Z,22.56
2017-09-12T02:24:54.835Z,22.48
2017-09-12T02:25:54.855Z,22.59
2017-09-12T02:26:55.189Z,22.54
2017-09-12T02:27:54.926Z,22.49
2017-09-12T02:28:54.958Z,22.56
2017-09-12T02:29:55.193Z,22.48
2017-09-12T02:30:55.031Z,22.52
2017-09-12T02:31:55.054Z,22.46
2017-09-12T02:32:55.394Z,22.46
2017-09-12T02:33:55.120Z,22.54
2017-09-12T02:34:55.212Z,22.46
2017-09-12T02:35:55.190Z,22.48
2017-09-12T02:36:55.224Z,22.48
2017-09-12T02:37:55.269Z,22.48
2017-09-12T02:38:55.846Z,22.46
2017-09-12T02:39:55.334Z,22.46
2017-09-12T02:40:55.374Z,22.45
2017-09-12T02:41:55.389Z,22.45
2017-09-12T02:42:55.425Z,22.48
2017-09-12T02:43:55.469Z,22.45
2017-09-12T02:44:55.789Z,22.48
2017-09-12T02:45:55.532Z,22.46
2017-09-12T02:46:55.558Z,22.48
2017-09-12T02:47:55.593Z,22.48
2017-09-12T02:48:55.772Z,22.48
2017-09-12T02:49:55.660Z,22.39
2017-09-12T02:50:55.993Z,22.39
2017-09-12T02:51:55.724Z,22.44
2017-09-12T02:52:55.788Z,22.33
2017-09-12T02:53:55.796Z,22.42
2017-09-12T02:54:55.828Z,22.36
2017-09-12T02:55:55.865Z,22.39
2017-09-12T02:56:56.195Z,22.39
2017-09-12T02:57:55.973Z,22.36
2017-09-12T02:58:55.953Z,22.38
2017-09-12T02:59:56.038Z,22.41
2017-09-12T03:00:56.036Z,22.38
2017-09-12T03:01:56.053Z,22.24
2017-09-12T03:02:56.394Z,22.31
2017-09-12T03:03:56.118Z,22.31
2017-09-12T03:04:56.312Z,22.35
2017-09-12T03:05:56.183Z,22.27
2017-09-12T03:06:56.218Z,22.33
2017-09-12T03:07:56.250Z,22.33
2017-09-12T03:08:56.587Z,22.27
2017-09-12T03:09:56.316Z,22.33
2017-09-12T03:10:56.408Z,22.30
2017-09-12T03:11:56.388Z,22.33
2017-09-12T03:12:56.423Z,22.29
2017-09-12T03:13:56.449Z,22.30
2017-09-12T03:14:56.787Z,22.26
2017-09-12T03:15:56.516Z,22.30
2017-09-12T03:16:56.550Z,22.21
2017-09-12T03:17:56.578Z,22.23
2017-09-12T03:18:56.628Z,22.23
2017-09-12T03:19:56.654Z,22.20
2017-09-12T03:20:56.782Z,22.30
2017-09-12T03:21:57.019Z,22.24
2017-09-12T03:22:56.748Z,22.23
2017-09-12T03:23:56.811Z,22.23
2017-09-12T03:24:56.828Z,22.30
2017-09-12T03:25:56.855Z,22.23
2017-09-12T03:26:56.899Z,22.24
2017-09-12T03:27:57.212Z,22.29
2017-09-12T03:28:56.946Z,22.24
2017-09-12T03:29:56.976Z,22.21
2017-09-12T03:30:57.016Z,22.27
2017-09-12T03:31:57.100Z,22.26
2017-09-12T03:32:57.078Z,22.23
2017-09-12T03:33:57.409Z,22.29
2017-09-12T03:34:57.147Z,22.24
2017-09-12T03:35:57.192Z,22.33
2017-09-12T03:36:57.259Z,22.23
2017-09-12T03:37:57.246Z,22.29
2017-09-12T03:38:57.276Z,22.26
2017-09-12T03:39:57.610Z,22.24
2017-09-12T03:40:57.364Z,22.24
2017-09-12T03:41:57.379Z,22.26
2017-09-12T03:42:57.609Z,22.27
2017-09-12T03:43:57.449Z,22.24
2017-09-12T03:44:57.480Z,22.24
2017-09-12T03:45:57.817Z,22.21
2017-09-12T03:46:57.542Z,22.20
2017-09-12T03:47:57.612Z,22.21
2017-09-12T03:48:57.605Z,22.20
2017-09-12T03:49:57.692Z,22.20
2017-09-12T03:50:57.673Z,22.17
2017-09-12T03:51:58.008Z,22.12
2017-09-12T03:52:57.740Z,22.21
2017-09-12T03:53:58.047Z,22.05
2017-09-12T03:54:57.803Z,22.23
2017-09-12T03:55:57.874Z,22.14
2017-09-12T03:56:57.869Z,22.19
2017-09-12T03:57:58.206Z,22.21
2017-09-12T03:58:57.941Z,22.11
2017-09-12T03:59:58.120Z,22.06
2017-09-12T04:00:58.002Z,22.09
2017-09-12T04:01:58.034Z,22.11
2017-09-12T04:02:58.066Z,22.11
2017-09-12T04:03:58.404Z,22.12
2017-09-12T04:04:58.387Z,22.09
2017-09-12T04:05:58.176Z,22.09
2017-09-12T04:06:58.209Z,22.14
2017-09-12T04:07:58.301Z,22.12
2017-09-12T04:08:58.272Z,22.01
2017-09-12T04:09:58.702Z,22.05
2017-09-12T04:10:58.377Z,22.04
2017-09-12T04:11:58.392Z,22.08
2017-09-12T04:12:58.421Z,22.02
2017-09-12T04:13:58.479Z,22.08
2017-09-12T04:14:58.471Z,21.99
2017-09-12T04:15:58.495Z,22.05
2017-09-12T04:16:58.836Z,22.02
2017-09-12T04:17:58.565Z,22.02
2017-09-12T04:18:58.657Z,21.99
2017-09-12T04:19:58.632Z,22.05
2017-09-12T04:20:58.700Z,21.99
2017-09-12T04:21:58.698Z,22.01
2017-09-12T04:22:59.026Z,21.91
2017-09-12T04:23:58.909Z,21.94
2017-09-12T04:24:58.950Z,21.94
2017-09-12T04:25:58.972Z,21.99
2017-09-12T04:26:58.859Z,21.98
2017-09-12T04:27:58.905Z,21.99
2017-09-12T04:28:59.242Z,21.96
2017-09-12T04:29:59.321Z,21.98
2017-09-12T04:30:59.049Z,21.98
2017-09-12T04:31:59.023Z,21.93
2017-09-12T04:32:59.063Z,21.86
2017-09-12T04:33:59.100Z,21.90
2017-09-12T04:34:59.433Z,21.94
2017-09-12T04:35:59.155Z,21.90
2017-09-12T04:36:59.192Z,21.90
2017-09-12T04:37:59.252Z,21.94
2017-09-12T04:38:59.370Z,21.99
2017-09-12T04:39:59.286Z,21.93
2017-09-12T04:40:59.641Z,21.91
2017-09-12T04:41:59.353Z,21.93
2017-09-12T04:42:59.387Z,21.90
2017-09-12T04:43:59.423Z,21.91
2017-09-12T04:44:59.455Z,21.90
2017-09-12T04:45:59.487Z,21.93
2017-09-12T04:46:59.821Z,22.04
2017-09-12T04:47:59.549Z,21.99
2017-09-12T04:48:59.794Z,21.98
2017-09-12T04:49:59.627Z,22.06
2017-09-12T04:50:59.698Z,22.02
2017-09-12T04:51:59.734Z,22.04
2017-09-12T04:53:00.019Z,22.06
2017-09-12T04:53:59.755Z,22.06
2017-09-12T04:54:59.788Z,22.04
2017-09-12T04:55:59.818Z,22.05
2017-09-12T04:56:59.846Z,22.08
2017-09-12T04:57:59.899Z,22.12
2017-09-12T04:59:00.210Z,22.15
2017-09-12T04:59:59.956Z,22.09
2017-09-12T05:01:00.031Z,22.12
2017-09-12T05:02:00.013Z,22.15
2017-09-12T05:03:00.042Z,22.15
2017-09-12T05:04:00.090Z,22.20
2017-09-12T05:05:00.412Z,22.19
2017-09-12T05:06:00.164Z,22.23
2017-09-12T05:07:00.179Z,22.21
2017-09-12T05:08:00.213Z,22.24
2017-09-12T05:09:00.245Z,22.19
2017-09-12T05:10:00.330Z,22.24
2017-09-12T05:11:00.607Z,22.26
2017-09-12T05:12:00.348Z,22.30
2017-09-12T05:13:00.425Z,22.31
2017-09-12T05:14:00.415Z,22.29
2017-09-12T05:15:00.440Z,22.27
2017-09-12T05:16:00.473Z,22.27
2017-09-12T05:17:00.811Z,22.30
2017-09-12T05:18:00.542Z,22.26
2017-09-12T05:19:00.574Z,22.33
2017-09-12T05:20:00.623Z,22.27
2017-09-12T05:21:00.673Z,22.30
2017-09-12T05:22:00.676Z,22.33
2017-09-12T05:23:01.010Z,22.44
2017-09-12T05:24:00.743Z,22.36
2017-09-12T05:25:00.778Z,22.33
2017-09-12T05:26:00.866Z,22.35
2017-09-12T05:27:00.844Z,22.41
2017-09-12T05:28:00.871Z,22.41
2017-09-12T05:29:01.054Z,22.39
2017-09-12T05:30:00.944Z,22.44
2017-09-12T05:31:00.986Z,22.39
2017-09-12T05:32:01.024Z,22.35
2017-09-12T05:33:01.043Z,22.44
2017-09-12T05:34:01.376Z,22.42
2017-09-12T05:35:01.163Z,22.36
2017-09-12T05:36:01.192Z,22.41
2017-09-12T05:37:01.175Z,22.38
2017-09-12T05:38:01.210Z,22.41
2017-09-12T05:39:01.238Z,22.44
2017-09-12T05:40:01.573Z,22.45
2017-09-12T05:41:01.309Z,22.45
2017-09-12T05:42:01.339Z,22.42
2017-09-12T05:43:01.435Z,22.44
2017-09-12T05:44:01.405Z,22.49
2017-09-12T05:45:01.442Z,22.51
2017-09-12T05:46:01.774Z,22.48
2017-09-12T05:47:01.503Z,22.48
2017-09-12T05:48:01.589Z,22.45
2017-09-12T05:49:01.574Z,22.46
2017-09-12T05:50:01.656Z,22.45
2017-09-12T05:51:01.638Z,22.45
2017-09-12T05:52:01.974Z,22.45
2017-09-12T05:53:01.810Z,22.56
2017-09-12T05:54:01.737Z,22.56
2017-09-12T05:55:01.771Z,22.45
2017-09-12T05:56:01.813Z,22.45
2017-09-12T05:57:01.948Z,22.48
2017-09-12T05:58:02.171Z,22.48
2017-09-12T05:59:01.902Z,22.46
2017-09-12T06:00:01.954Z,22.45
2017-09-12T06:01:01.970Z,22.52
2017-09-12T06:02:02.014Z,22.51
2017-09-12T06:03:02.041Z,22.48
2017-09-12T06:04:02.371Z,22.49
2017-09-12T06:05:02.114Z,22.51
2017-09-12T06:06:02.137Z,22.46
2017-09-12T06:07:02.170Z,22.52
2017-09-12T06:08:02.305Z,22.51
2017-09-12T06:10:02.599Z,22.49
2017-09-12T06:11:02.313Z,22.51
2017-09-12T06:12:02.353Z,22.51
2017-09-12T06:13:02.378Z,22.49
2017-09-12T06:14:02.402Z,22.59
2017-09-12T06:15:02.439Z,22.42
2017-09-12T06:16:02.769Z,22.57
2017-09-12T06:17:02.570Z,22.57
2017-09-12T06:18:02.535Z,22.59
2017-09-12T06:19:02.623Z,22.49
2017-09-12T06:20:02.605Z,22.54
2017-09-12T06:21:02.642Z,22.59
2017-09-12T06:22:02.971Z,22.56
2017-09-12T06:23:02.714Z,22.54
2017-09-12T06:24:02.837Z,22.57
2017-09-12T06:25:02.782Z,22.59
2017-09-12T06:26:02.809Z,22.59
2017-09-12T06:27:02.843Z,22.57
2017-09-12T06:28:03.181Z,22.59
2017-09-12T06:29:02.912Z,22.60
2017-09-12T06:30:03.000Z,22.56
2017-09-12T06:31:02.974Z,22.66
2017-09-12T06:32:03.022Z,22.66
2017-09-12T06:33:03.042Z,22.59
2017-09-12T06:34:03.381Z,22.60
2017-09-12T06:35:03.161Z,22.59
2017-09-12T06:36:03.145Z,22.60
2017-09-12T06:37:03.175Z,22.61
2017-09-12T06:38:03.207Z,22.70
2017-09-12T06:39:03.241Z,22.74
2017-09-12T06:40:03.626Z,22.69
2017-09-12T06:41:03.309Z,22.66
2017-09-12T06:42:03.354Z,22.67
2017-09-12T06:43:03.375Z,22.66
2017-09-12T06:44:03.414Z,22.70
2017-09-12T06:45:03.451Z,22.74
2017-09-12T06:46:03.786Z,22.66
2017-09-12T06:47:03.510Z,22.72
2017-09-12T06:48:03.558Z,22.75
2017-09-12T06:49:03.588Z,22.67
2017-09-12T06:50:03.620Z,22.59
2017-09-12T06:51:03.740Z,22.64
2017-09-12T06:52:03.979Z,22.70
2017-09-12T06:53:03.719Z,22.72
2017-09-12T06:54:03.765Z,22.60
2017-09-12T06:55:03.781Z,22.72
2017-09-12T06:56:04.071Z,22.70
2017-09-12T06:57:03.847Z,22.66
2017-09-12T06:58:04.188Z,22.74
2017-09-12T06:59:03.920Z,22.72
2017-09-12T07:00:03.961Z,22.75
2017-09-12T07:01:03.989Z,22.72
2017-09-12T07:02:04.120Z,22.76
2017-09-12T07:03:04.073Z,22.70
2017-09-12T07:04:04.387Z,22.70
2017-09-12T07:05:04.129Z,22.75
2017-09-12T07:06:04.151Z,22.74
2017-09-12T07:07:04.357Z,22.76
2017-09-12T07:08:04.224Z,22.85
2017-09-12T07:09:04.258Z,22.84
2017-09-12T07:10:04.589Z,22.81
2017-09-12T07:11:04.325Z,22.81
2017-09-12T07:12:04.369Z,22.84
2017-09-12T07:13:04.538Z,22.86
2017-09-12T07:14:04.419Z,22.84
2017-09-12T07:15:04.458Z,22.94
2017-09-12T07:16:04.790Z,22.91
2017-09-12T07:17:04.520Z,22.85
2017-09-12T07:18:04.569Z,22.84
2017-09-12T07:19:04.588Z,22.94
2017-09-12T07:20:04.622Z,22.79
2017-09-12T07:21:04.663Z,22.82
2017-09-12T07:22:05.010Z,23.00
2017-09-12T07:23:04.724Z,23.04
2017-09-12T07:24:04.812Z,22.94
2017-09-12T07:25:04.800Z,22.96
2017-09-12T07:26:04.825Z,23.00
2017-09-12T07:27:04.866Z,23.03
2017-09-12T07:28:05.211Z,23.06
2017-09-12T07:29:04.927Z,23.00
2017-09-12T07:30:05.065Z,22.99
2017-09-12T07:31:05.001Z,23.00
2017-09-12T07:32:05.030Z,23.00
2017-09-12T07:33:05.066Z,23.07
2017-09-12T07:34:05.407Z,23.01
2017-09-12T07:35:05.131Z,23.06
2017-09-12T07:36:05.170Z,23.09
2017-09-12T07:37:05.223Z,23.06
2017-09-12T07:38:05.240Z,23.03
2017-09-12T07:39:05.319Z,23.14
2017-09-12T07:40:05.618Z,23.09
2017-09-12T07:41:05.343Z,23.04
2017-09-12T07:42:05.372Z,23.18
2017-09-12T07:43:05.429Z,23.14
2017-09-12T07:44:05.742Z,23.07
2017-09-12T07:45:05.474Z,23.06
2017-09-12T07:46:05.810Z,23.18
2017-09-12T07:47:05.550Z,23.16
2017-09-12T07:48:05.577Z,23.18
2017-09-12T07:49:05.607Z,23.11
2017-09-12T07:50:05.689Z,23.22
2017-09-12T07:51:05.680Z,23.22
2017-09-12T07:52:06.011Z,23.18
2017-09-12T07:53:05.743Z,23.19
2017-09-12T07:54:05.813Z,23.16
2017-09-12T07:55:05.812Z,23.23
2017-09-12T07:56:05.845Z,23.11
2017-09-12T07:57:05.883Z,23.15
2017-09-12T07:58:06.270Z,23.23
2017-09-12T07:59:06.097Z,23.11
2017-09-12T08:00:05.992Z,23.22
2017-09-12T08:01:06.025Z,23.19
2017-09-12T08:02:06.055Z,23.22
2017-09-12T08:03:06.087Z,23.16
2017-09-12T08:04:06.671Z,23.21
2017-09-12T08:05:06.170Z,23.07
2017-09-12T08:06:06.187Z,23.06
2017-09-12T08:07:06.221Z,23.16
2017-09-12T08:08:06.258Z,23.07
2017-09-12T08:09:06.291Z,23.11
2017-09-12T08:10:06.676Z,23.14
2017-09-12T08:11:06.355Z,23.04
2017-09-12T08:12:06.388Z,23.06
2017-09-12T08:13:06.439Z,23.09
2017-09-12T08:14:06.471Z,23.09
2017-09-12T08:15:06.638Z,23.07
2017-09-12T08:16:06.837Z,23.09
2017-09-12T08:17:06.558Z,23.06
2017-09-12T08:18:06.590Z,23.09
2017-09-12T08:19:06.633Z,23.04
2017-09-12T08:20:06.669Z,23.07
2017-09-12T08:21:06.697Z,23.06
2017-09-12T08:22:07.026Z,23.09
2017-09-12T08:23:06.769Z,23.09
2017-09-12T08:24:06.798Z,23.14
2017-09-12T08:25:06.833Z,23.06
2017-09-12T08:26:06.916Z,23.09
2017-09-12T08:27:06.895Z,23.04
2017-09-12T08:28:07.235Z,23.04
2017-09-12T08:29:07.008Z,23.06
2017-09-12T08:30:07.000Z,23.11
2017-09-12T08:31:07.034Z,23.09
2017-09-12T08:32:07.124Z,23.18
2017-09-12T08:33:07.107Z,23.06
2017-09-12T08:34:07.435Z,23.04
2017-09-12T08:35:07.173Z,23.11
2017-09-12T08:36:07.209Z,23.21
2017-09-12T08:37:07.243Z,23.18
2017-09-12T08:38:07.273Z,23.09
2017-09-12T08:39:07.353Z,23.15
2017-09-12T08:40:07.779Z,23.22
2017-09-12T08:41:07.378Z,23.23
2017-09-12T08:42:07.410Z,23.18
2017-09-12T08:43:07.442Z,23.18
2017-09-12T08:44:07.478Z,23.22
2017-09-12T08:45:07.760Z,23.19
2017-09-12T08:46:07.843Z,23.21
2017-09-12T08:47:07.579Z,23.19
2017-09-12T08:48:07.629Z,23.18
2017-09-12T08:49:07.653Z,23.19
2017-09-12T08:50:07.936Z,23.15
2017-09-12T08:51:07.714Z,23.15
2017-09-12T08:52:08.047Z,23.18
2017-09-12T08:53:07.780Z,23.14
2017-09-12T08:54:07.812Z,23.15
2017-09-12T08:55:07.907Z,23.14
2017-09-12T08:56:07.890Z,23.25
2017-09-12T08:57:07.944Z,23.29
2017-09-12T08:58:08.275Z,23.26
2017-09-12T08:59:07.988Z,23.25
2017-09-12T09:00:08.266Z,23.21
2017-09-12T09:01:08.051Z,23.23
2017-09-12T09:02:08.087Z,23.26
2017-09-12T09:03:08.359Z,23.22
2017-09-12T09:04:08.524Z,23.19
2017-09-12T09:05:08.188Z,23.31
2017-09-12T09:06:08.326Z,23.25
2017-09-12T09:07:08.402Z,23.26
2017-09-12T09:08:08.640Z,23.22
2017-09-12T09:09:08.334Z,23.25
2017-09-12T09:10:08.800Z,23.29
2017-09-12T09:11:08.398Z,23.29
2017-09-12T09:12:08.424Z,23.23
2017-09-12T09:13:08.462Z,23.23
2017-09-12T09:14:08.509Z,23.25
2017-09-12T09:15:08.683Z,23.22
2017-09-12T09:16:08.861Z,23.31
2017-09-12T09:17:08.601Z,23.26
2017-09-12T09:18:08.631Z,23.34
2017-09-12T09:19:08.664Z,23.29
2017-09-12T09:20:08.752Z,23.37
2017-09-12T09:21:08.735Z,23.26
2017-09-12T09:22:09.066Z,23.35
2017-09-12T09:23:08.801Z,23.35
2017-09-12T09:24:08.831Z,23.35
2017-09-12T09:25:08.934Z,23.29
2017-09-12T09:26:08.900Z,23.31
2017-09-12T09:27:08.946Z,23.37
2017-09-12T09:28:09.275Z,23.34
2017-09-12T09:29:09.005Z,23.34
2017-09-12T09:30:09.201Z,23.31
2017-09-12T09:31:09.071Z,23.32
2017-09-12T09:32:09.111Z,23.26
2017-09-12T09:33:09.150Z,23.38
2017-09-12T09:34:09.480Z,23.31
2017-09-12T09:35:09.209Z,23.39
2017-09-12T09:36:09.244Z,23.32
2017-09-12T09:37:09.277Z,23.39
2017-09-12T09:38:09.323Z,23.31
2017-09-12T09:39:09.353Z,23.23
2017-09-12T09:40:09.700Z,23.31
2017-09-12T09:41:09.463Z,23.32
2017-09-12T09:42:09.443Z,23.34
2017-09-12T09:43:09.487Z,23.22
2017-09-12T09:44:09.517Z,23.34
2017-09-12T09:45:09.598Z,23.32
2017-09-12T09:46:09.886Z,23.25
2017-09-12T09:47:09.670Z,23.37
2017-09-12T09:48:09.649Z,23.41
2017-09-12T09:49:09.681Z,23.38
2017-09-12T09:50:09.733Z,23.41
2017-09-12T09:51:09.751Z,23.39
2017-09-12T09:52:10.083Z,23.47
2017-09-12T09:53:10.422Z,23.42
2017-09-12T09:54:09.857Z,23.39
2017-09-12T09:55:09.888Z,23.42
2017-09-12T09:56:09.955Z,23.42
2017-09-12T09:57:09.954Z,23.50
2017-09-12T09:58:10.341Z,23.42
2017-09-12T09:59:10.035Z,23.44
2017-09-12T10:00:10.215Z,23.41
2017-09-12T10:01:10.092Z,23.45
2017-09-12T10:02:10.129Z,23.44
2017-09-12T10:03:10.169Z,23.44
2017-09-12T10:04:10.504Z,23.44
2017-09-12T10:05:10.231Z,23.39
2017-09-12T10:06:10.378Z,23.45
2017-09-12T10:07:10.304Z,23.42
2017-09-12T10:08:10.338Z,23.47
2017-09-12T10:09:10.378Z,23.42
2017-09-12T10:10:10.699Z,23.44
2017-09-12T10:11:10.442Z,23.45
2017-09-12T10:12:10.473Z,23.41
2017-09-12T10:13:10.499Z,23.44
2017-09-12T10:14:10.534Z,23.44
2017-09-12T10:15:10.730Z,23.44
2017-09-12T10:16:10.906Z,23.44
2017-09-12T10:17:10.638Z,23.42
2017-09-12T10:18:10.671Z,23.44
2017-09-12T10:19:10.715Z,23.45
2017-09-12T10:20:10.754Z,23.47
2017-09-12T10:21:10.773Z,23.44
2017-09-12T10:22:11.129Z,23.50
2017-09-12T10:23:10.861Z,23.49
2017-09-12T10:24:10.889Z,23.45
2017-09-12T10:25:10.961Z,23.45
2017-09-12T10:26:10.952Z,23.50
2017-09-12T10:27:10.978Z,23.49
2017-09-12T10:28:11.327Z,23.57
2017-09-12T10:29:11.062Z,23.50
2017-09-12T10:30:11.346Z,23.50
2017-09-12T10:31:11.131Z,23.50
2017-09-12T10:32:11.170Z,23.53
2017-09-12T10:33:11.186Z,23.52
2017-09-12T10:34:11.525Z,23.56
2017-09-12T10:35:11.262Z,23.59
2017-09-12T10:36:11.290Z,23.54
2017-09-12T10:37:11.323Z,23.56
2017-09-12T10:38:11.357Z,23.60
2017-09-12T10:39:11.392Z,23.62
2017-09-12T10:40:11.992Z,23.59
2017-09-12T10:41:11.462Z,23.62
2017-09-12T10:42:11.489Z,23.63
2017-09-12T10:43:11.524Z,23.60
2017-09-12T10:44:11.577Z,23.63
2017-09-12T10:45:11.752Z,23.68
2017-09-12T10:46:11.931Z,23.63
2017-09-12T10:47:11.665Z,23.60
2017-09-12T10:48:11.703Z,23.62
2017-09-12T10:49:11.730Z,23.62
2017-09-12T10:50:11.836Z,23.71
2017-09-12T10:51:11.811Z,23.68
2017-09-12T10:52:12.144Z,23.69
2017-09-12T10:53:11.879Z,23.62
2017-09-12T10:54:11.905Z,23.69
2017-09-12T10:55:11.938Z,23.67
2017-09-12T10:56:12.510Z,23.68
2017-09-12T10:57:12.016Z,23.68
2017-09-12T10:58:12.642Z,23.67
2017-09-12T10:59:12.081Z,23.69
2017-09-12T11:00:12.111Z,23.67
2017-09-12T11:01:12.159Z,23.68
2017-09-12T11:02:12.337Z,23.67
2017-09-12T11:03:12.225Z,23.68
2017-09-12T11:04:12.554Z,23.72
2017-09-12T11:05:12.282Z,23.77
2017-09-12T11:06:12.324Z,23.72
2017-09-12T11:07:12.358Z,23.67
2017-09-12T11:08:12.389Z,23.68
2017-09-12T11:09:12.418Z,23.74
2017-09-12T11:10:12.762Z,23.71
2017-09-12T11:11:12.491Z,23.71
2017-09-12T11:12:12.524Z,23.79
2017-09-12T11:13:12.558Z,23.75
2017-09-12T11:14:12.615Z,23.77
2017-09-12T11:15:12.628Z,23.77
2017-09-12T11:16:12.978Z,23.72
2017-09-12T11:17:12.701Z,23.78
2017-09-12T11:18:12.785Z,23.79
2017-09-12T11:19:12.774Z,23.81
2017-09-12T11:20:12.805Z,23.78
2017-09-12T11:21:12.944Z,23.78
2017-09-12T11:22:13.176Z,23.87
2017-09-12T11:23:12.912Z,23.81
2017-09-12T11:24:12.943Z,23.84
2017-09-12T11:25:12.978Z,23.86
2017-09-12T11:26:13.054Z,23.89
2017-09-12T11:27:13.304Z,23.89
2017-09-12T11:28:13.388Z,23.90
2017-09-12T11:29:13.149Z,23.84
2017-09-12T11:30:13.154Z,23.89
2017-09-12T11:31:13.185Z,23.90
2017-09-12T11:32:13.322Z,23.86
2017-09-12T11:33:13.482Z,23.92
2017-09-12T11:34:13.610Z,23.90
2017-09-12T11:35:13.325Z,23.93
2017-09-12T11:36:13.503Z,23.90
2017-09-12T11:37:13.603Z,23.90
2017-09-12T11:38:13.427Z,23.93
2017-09-12T11:39:13.470Z,23.87
2017-09-12T11:40:13.807Z,23.84
2017-09-12T11:41:13.570Z,23.86
2017-09-12T11:42:13.573Z,23.87
2017-09-12T11:43:13.605Z,24.00
2017-09-12T11:44:13.802Z,23.87
2017-09-12T11:45:13.725Z,23.87
2017-09-12T11:46:14.011Z,23.96
2017-09-12T11:47:13.758Z,24.00
2017-09-12T11:48:13.870Z,23.96
2017-09-12T11:49:13.824Z,23.96
2017-09-12T11:50:13.862Z,23.99
2017-09-12T11:51:13.889Z,24.00
2017-09-12T11:52:14.225Z,24.09
2017-09-12T11:53:13.953Z,24.05
2017-09-12T11:54:13.992Z,24.04
2017-09-12T11:55:14.072Z,24.14
2017-09-12T11:56:14.068Z,24.04
2017-09-12T11:57:14.096Z,24.04
2017-09-12T11:58:14.788Z,24.18
2017-09-12T11:59:14.172Z,24.21
2017-09-12T12:00:14.302Z,24.21
2017-09-12T12:01:14.238Z,24.15
2017-09-12T12:02:14.275Z,24.16
2017-09-12T12:03:14.311Z,24.16
2017-09-12T12:04:14.644Z,24.23
2017-09-12T12:05:14.392Z,24.21
2017-09-12T12:06:14.412Z,24.24
2017-09-12T12:07:14.461Z,24.18
2017-09-12T12:08:14.482Z,24.18
2017-09-12T12:09:14.541Z,24.15
2017-09-12T12:10:14.868Z,24.23
2017-09-12T12:11:14.693Z,24.16
2017-09-12T12:12:14.622Z,24.24
2017-09-12T12:13:14.660Z,24.18
2017-09-12T12:14:14.699Z,24.19
2017-09-12T12:15:14.736Z,24.19
2017-09-12T12:16:15.072Z,24.23
2017-09-12T12:17:14.920Z,24.21
2017-09-12T12:18:14.831Z,24.26
2017-09-12T12:19:14.880Z,24.19
2017-09-12T12:20:14.904Z,24.18
2017-09-12T12:21:14.949Z,24.18
2017-09-12T12:22:15.284Z,24.23
2017-09-12T12:23:15.112Z,24.19
2017-09-12T12:24:15.054Z,24.21
2017-09-12T12:25:15.083Z,24.19
2017-09-12T12:26:15.117Z,24.21
2017-09-12T12:27:15.151Z,24.18
2017-09-12T12:28:15.546Z,24.19
2017-09-12T12:29:15.221Z,24.23
2017-09-12T12:30:15.262Z,24.29
2017-09-12T12:31:15.294Z,24.27
2017-09-12T12:32:15.328Z,24.27
2017-09-12T12:33:15.402Z,24.27
2017-09-12T12:34:15.697Z,24.30
2017-09-12T12:35:15.432Z,24.26
2017-09-12T12:36:15.467Z,24.26
2017-09-12T12:37:15.515Z,24.29
2017-09-12T12:38:15.537Z,24.30
2017-09-12T12:39:15.572Z,24.34
2017-09-12T12:40:15.923Z,24.23
2017-09-12T12:41:15.646Z,24.27
2017-09-12T12:42:15.686Z,24.29
2017-09-12T12:43:15.712Z,24.30
2017-09-12T12:44:15.752Z,24.27
2017-09-12T12:45:15.787Z,24.30
2017-09-12T12:46:16.135Z,24.21
2017-09-12T12:47:15.858Z,24.26
2017-09-12T12:48:15.892Z,24.27
2017-09-12T12:49:15.978Z,24.24
2017-09-12T12:50:15.982Z,24.31
2017-09-12T12:51:16.012Z,24.29
2017-09-12T12:52:16.586Z,24.33
2017-09-12T12:53:16.136Z,24.30
2017-09-12T12:54:16.110Z,24.33